Nearby METAR Reports

 

KSJC - San Jose, California, USA
Distance from station: NE 9mi, 14km
Updated: Thu, 06-Oct-2022 11:53pm CDT
Clear
Clear
 Wind from NW
Wind: NW 5 mph , 7 km/h
Temperature: 64°F , 18°C
Dew Point: 57°F , 14°C
Humidity: 78%
Barometer: 30.04 inHg , 1017.3 hPa
Clouds: Clear
Visibility: 10 miles , 16 km
2022/10/07 04:53 KSJC 070453Z 31004KT 10SM CLR 18/14 A3004 RMK AO2 SLP171 T01780144
KNUQ - Moffett Nas/Mtn, California, USA
Distance from station: N 9mi, 14km
Updated: Fri, 07-Oct-2022 12:35am CDT

 Wind from calm
Wind: Calm
Temperature: 61°F , 16°C
Dew Point: 57°F , 14°C
Humidity: 88%
Barometer: 30.05 inHg , 1017.6 hPa
Visibility: 10 miles , 16 km
2022/10/07 05:35 KNUQ 070535Z AUTO 00000KT 10SM 16/14 A3005 RMK AO2
KPAO - Palo Alto, California, USA
Distance from station: NNW 14mi, 23km
Updated: Thu, 06-Oct-2022 10:47pm CDT
NOT Current
Few Clouds
Few Clouds
 Wind from varies
Wind: varies 6 mph , 9 km/h
Temperature: 61°F , 16°C
Dew Point: 57°F , 14°C
Humidity: 88%
Barometer: 30.04 inHg , 1017.3 hPa
Clouds: Few Clouds
Visibility: 10 miles , 16 km
Cloud details: Few Clouds 12000 ft
2022/10/07 03:47 KPAO 070347Z VRB05KT 10SM FEW120 16/14 A3004
 
KRHV - San Jose/Reid, California, USA
Distance from station: ENE 12mi, 19km
Updated: Thu, 06-Oct-2022 9:58pm CDT
NOT Current
Few Clouds
Few Clouds
 Wind from NW
Wind: NW 6 mph , 9 km/h
Temperature: 68°F , 20°C
Dew Point: 57°F , 14°C
Humidity: 69%
Barometer: 30.01 inHg , 1016.3 hPa
Clouds: Few Clouds
Visibility: 10 miles , 16 km
Cloud details: Few Clouds 12000 ft
2022/10/07 02:58 KRHV 070258Z 31005KT 10SM FEW120 20/14 A3001
KOAK - Oakland, California, USA
Distance from station: NNW 31mi, 50km
Updated: Thu, 06-Oct-2022 11:53pm CDT
Few Clouds
Few Clouds
 Wind from NW
Wind: NW 7 mph , 11 km/h
Temperature: 57°F , 14°C
Dew Point: 54°F , 12°C
Humidity: 88%
Barometer: 30.06 inHg , 1017.9 hPa
Clouds: Few Clouds
Visibility: 10 miles , 16 km
Cloud details: Few Clouds 1000 ft
Few Clouds 18000 ft
2022/10/07 04:53 KOAK 070453Z 31006KT 10SM FEW010 FEW180 14/12 A3006 RMK AO2 SLP178 T01440122 $
KSQL - San Carlos Airpo, California, USA
Distance from station: NW 21mi, 34km
Updated: Fri, 07-Oct-2022 12:35am CDT
Clear
Clear
 Wind from calm
Wind: Calm
Temperature: 59°F , 15°C
Dew Point: 55°F , 13°C
Humidity: 88%
Barometer: 30.06 inHg , 1017.9 hPa
Clouds: Clear
Visibility: 10 miles , 16 km
2022/10/07 05:35 KSQL 070535Z AUTO 00000KT 10SM CLR 15/13 A3006 RMK AO2
 
KSFO - San Francisco, California, USA
Distance from station: NW 30mi, 49km
Updated: Thu, 06-Oct-2022 11:56pm CDT
Few Clouds
Few Clouds
 Wind from WNW
Wind: WNW 9 mph , 15 km/h
Temperature: 55°F , 13°C
Dew Point: 54°F , 12°C
Humidity: 94%
Barometer: 30.05 inHg , 1017.6 hPa
Clouds: Few Clouds
Visibility: 10 miles , 16 km
Cloud details: Few Clouds 200 ft
2022/10/07 04:56 KSFO 070456Z 29008KT 10SM FEW002 13/12 A3005 RMK AO2 SLP174 T01330117
KE16 - San Martin, California, USA
Distance from station: ESE 27mi, 43km
Updated: Fri, 07-Oct-2022 12:35am CDT
Overcast
Overcast
 Wind from calm
Wind: Calm
Temperature: 59°F , 15°C
Dew Point: 54°F , 12°C
Humidity: 82%
Barometer: 30.08 inHg , 1018.6 hPa
Clouds: Overcast
Visibility: 10 miles , 16 km
Cloud details: Mostly cloudy 3600 ft
Mostly cloudy 4100 ft
Overcast 5000 ft
2022/10/07 05:35 KE16 070535Z AUTO 00000KT 10SM BKN036 BKN041 OVC050 15/12 A3008 RMK AO2 PWINO PNO
KWVI - Watsonville, California, USA
Distance from station: SSE 27mi, 44km
Updated: Thu, 06-Oct-2022 11:53pm CDT
Mist, Overcast
Mist, Overcast
 Wind from calm
Wind: Calm
Temperature: 54°F , 12°C
Dew Point: 54°F , 12°C
Humidity: 100%
Barometer: 30.07 inHg , 1018.3 hPa
Summary: Mist
Clouds: Overcast
Visibility: 3/4 mile , 1.2 km
Cloud details: Overcast 300 ft
2022/10/07 04:53 KWVI 070453Z AUTO 00000KT 3/4SM BR VV003 12/12 A3007 RMK AO2 SLP181 T01170117
 
KHAF - Half Moon Bay, California, USA
Distance from station: WNW 31mi, 50km
Updated: Fri, 07-Oct-2022 12:35am CDT
Mist, Overcast
Mist, Overcast
 Wind from ENE
Wind: ENE 5 mph , 7 km/h
Temperature: 54°F , 12°C
Dew Point: 54°F , 12°C
Humidity: 100%
Barometer: 30.08 inHg , 1018.6 hPa
Summary: Mist
Clouds: Overcast
Visibility: 3/4 mile , 1.2 km
Cloud details: Overcast 300 ft
2022/10/07 05:35 KHAF 070535Z AUTO 07004KT 3/4SM BR OVC003 12/12 A3008 RMK AO2
KHWD - Hayward, California, USA
Distance from station: N 28mi, 44km
Updated: Thu, 06-Oct-2022 11:54pm CDT
Clear
Clear
 Wind from WNW
Wind: WNW 5 mph , 7 km/h
Temperature: 57°F , 14°C
Dew Point: 54°F , 12°C
Humidity: 88%
Barometer: 30.04 inHg , 1017.3 hPa
Clouds: Clear
Visibility: 10 miles , 16 km
2022/10/07 04:54 KHWD 070454Z 29004KT 10SM CLR 14/12 A3004 RMK AO2 SLP182 T01440122
KLVK - Livermore, California, USA
Distance from station: NNE 31mi, 51km
Updated: Thu, 06-Oct-2022 11:53pm CDT
Clear
Clear
 Wind from calm
Wind: Calm
Temperature: 70°F , 21°C
Dew Point: 50°F , 10°C
Humidity: 50%
Barometer: 30.02 inHg , 1016.6 hPa
Clouds: Clear
Visibility: 10 miles , 16 km
2022/10/07 04:53 KLVK 070453Z 00000KT 10SM CLR 21/10 A3002 RMK AO2 SLP163 T02060100